Hauptseite
METAR-TAF:

METAR-TAF

Flughäfen :

Flughafen Kopenhagen-Roskilde

Roskilde, Dänemark

Breite: 55-35N, Länge: 012-08E, Höhe: 44 m

Beobachtung

Neuester Wetterbericht von vor 37 Minuten, um 23:50 UTC
Wind 2 kt aus Nord/Nordwest
Temperatur 2°C
Luftfeuchtigkeit 93%
Luftdruck 1005 hPa
Sichtweite 10 km oder mehr

METAR: EKRK 162350Z AUTO 34002KT 9999 FEW076/// SCT180/// 02/01 Q1005

Zeit: 02:27 (00:27 UTC)

Prognose

Neuester Wetterbericht von vor 1 Stunde und 13 Minuten, um 23:14 UTC
Gültige Prognose vom 17 um 00 UTC bis 17 um 09 UTC
Wind 5 kt aus Süd/Südwest
Sichtweite 10 km oder mehr
keine Wolken unter 1500 m und keine Kumulonimbus oder Gewitterwolken
Zeitweise
vom 17 um 00 UTC bis 17 um 06 UTC
Sichtweite: 0400 m
Nebel,

TAF: EKRK 162314Z 1700/1709 21005KT CAVOK TEMPO 1700/1706 0400 FG

Wetterbeobachtungen und Prognosen von mehr als 4000 Flughäfen (METAR und TAF Bericht).

Die verfügbaren Stationen werden durch gelbe und rote Markierungen auf der Karte dargestellt.

Führen Sie die Maus auf sie, um den Namen der Station zu sehen.

Darauf klicken, um die Beobachtung von Wetterbeobachtungen und Prognosen zu sehen.

Um die Karte zu ändern : klicken Sie auf den grünen Tasten mit einem schwarzen Kreuz Zum Vergrößern, auf den grünen Button mit einem Gedankenstrich zu verkleinern, oder auf die grünen Pfeile für benachbarte Karten.


METAR-TAF: